Time;durP1;ratioP1;P1;durP2;ratioP2;P2;SDS_P1;SDS_P2;PMS_P1;PMS_P2;Temp;Humidity;BMP_temperature;BMP_pressure;BME280_temperature;BME280_humidity;BME280_pressure;Samples;Min_cycle;Max_cycle;Signal;HPM_P1;HPM_P2
2022/08/03 00:02:07;0.00;0.00;0.62;0.00;0.00;0.62;4.63;3.57;;;26.40;37.70;;;;;;2265953;61;20423;-65
2022/08/03 00:04:53;0.00;0.00;0.62;0.00;0.00;0.62;4.23;3.47;;;26.50;37.80;;;;;;2265594;61;20392;-66
2022/08/03 00:07:39;0.00;0.00;0.62;0.00;0.00;0.62;5.80;3.73;;;26.60;37.70;;;;;;2265575;61;20420;-65
2022/08/03 00:10:23;0.00;0.00;0.62;0.00;0.00;0.62;6.50;3.67;;;26.70;37.70;;;;;;2317269;57;20431;-65
2022/08/03 00:13:11;0.00;0.00;0.62;0.00;0.00;0.62;4.90;4.40;;;26.70;37.50;;;;;;2265660;61;20504;-65
2022/08/03 00:15:56;0.00;0.00;0.62;0.00;0.00;0.62;4.20;3.80;;;26.80;37.40;;;;;;2265775;61;20683;-66
2022/08/03 00:18:41;0.00;0.00;0.62;0.00;0.00;0.62;4.70;4.30;;;26.90;37.30;;;;;;2264862;61;20368;-65
2022/08/03 00:21:26;0.00;0.00;0.62;0.00;0.00;0.62;5.07;4.00;;;27.00;37.20;;;;;;2265648;61;20394;-65
2022/08/03 00:24:11;0.00;0.00;0.62;0.00;0.00;0.62;4.97;3.40;;;27.00;37.10;;;;;;2265916;61;20369;-66
2022/08/03 00:26:56;0.00;0.00;0.62;0.00;0.00;0.62;3.83;3.50;;;27.00;37.00;;;;;;2265289;61;20627;-65
2022/08/03 00:29:42;0.00;0.00;0.62;0.00;0.00;0.62;4.20;3.80;;;27.10;37.00;;;;;;2265233;61;20392;-66
2022/08/03 00:32:27;0.00;0.00;0.62;0.00;0.00;0.62;3.30;3.00;;;27.10;36.90;;;;;;2265484;61;20360;-65
2022/08/03 00:35:12;0.00;0.00;0.62;0.00;0.00;0.62;3.83;3.50;;;27.20;36.90;;;;;;2265601;61;20373;-67
2022/08/03 00:37:57;0.00;0.00;0.62;0.00;0.00;0.62;4.03;3.67;;;27.20;36.80;;;;;;2265770;61;20732;-65
2022/08/03 00:40:42;0.00;0.00;0.62;0.00;0.00;0.62;3.30;3.00;;;27.30;36.70;;;;;;2264996;61;20700;-66
2022/08/03 00:43:27;0.00;0.00;0.62;0.00;0.00;0.62;3.63;3.30;;;27.30;36.70;;;;;;2265659;61;20346;-65
2022/08/03 00:46:13;0.00;0.00;0.62;0.00;0.00;0.62;4.00;3.70;;;27.40;36.60;;;;;;2265851;61;20361;-65
2022/08/03 00:48:58;0.00;0.00;0.62;0.00;0.00;0.62;3.63;3.20;;;27.40;36.60;;;;;;2264777;61;20396;-65
2022/08/03 00:51:43;0.00;0.00;0.62;0.00;0.00;0.62;6.10;3.10;;;27.40;36.50;;;;;;2265781;61;20418;-65
2022/08/03 00:54:28;0.00;0.00;0.62;0.00;0.00;0.62;3.40;3.10;;;27.50;36.50;;;;;;2265072;61;20472;-65
2022/08/03 00:57:13;0.00;0.00;0.62;0.00;0.00;0.62;3.77;3.10;;;27.50;36.40;;;;;;2265580;61;20364;-65
2022/08/03 01:00:01;0.00;0.00;0.62;0.00;0.00;0.62;3.73;3.30;;;27.60;36.40;;;;;;2269086;61;20391;-65
2022/08/03 01:02:47;0.00;0.00;0.62;0.00;0.00;0.62;3.80;3.50;;;27.60;36.40;;;;;;2269095;61;20747;-65
2022/08/03 01:05:39;0.00;0.00;0.62;0.00;0.00;0.62;3.30;3.00;;;27.70;36.30;;;;;;2269642;61;20368;-65
2022/08/03 01:08:39;0.00;0.00;0.62;0.00;0.00;0.62;3.70;3.10;;;27.70;36.30;;;;;;2268207;61;20407;-65
2022/08/03 01:11:37;0.00;0.00;0.62;0.00;0.00;0.62;3.80;3.50;;;27.70;36.20;;;;;;2265218;61;20716;-65
2022/08/03 01:14:32;0.00;0.00;0.62;0.00;0.00;0.62;4.50;3.70;;;27.80;36.20;;;;;;2265651;61;20408;-65
2022/08/03 01:17:24;0.00;0.00;0.62;0.00;0.00;0.62;4.47;4.07;;;27.80;36.00;;;;;;2264987;61;20694;-65
2022/08/03 01:20:13;0.00;0.00;0.62;0.00;0.00;0.62;4.73;3.33;;;27.80;35.90;;;;;;2559707;45;20481;-65
2022/08/03 01:23:18;0.00;0.00;0.62;0.00;0.00;0.62;4.07;3.70;;;27.80;35.80;;;;;;2261670;61;20366;-65
2022/08/03 01:26:23;0.00;0.00;0.62;0.00;0.00;0.62;3.60;3.30;;;27.80;35.70;;;;;;2261172;61;20354;-65
2022/08/03 01:29:45;0.00;0.00;0.62;0.00;0.00;0.62;5.20;3.13;;;27.80;35.70;;;;;;2264224;61;20392;-65
2022/08/03 01:32:50;0.00;0.00;0.62;0.00;0.00;0.62;6.87;3.80;;;27.80;36.00;;;;;;2264979;61;20468;-67
2022/08/03 01:35:46;0.00;0.00;0.62;0.00;0.00;0.62;3.97;3.57;;;27.90;35.60;;;;;;2265633;61;20356;-66
2022/08/03 01:38:34;0.00;0.00;0.62;0.00;0.00;0.62;6.83;3.10;;;27.80;35.60;;;;;;2266665;61;20390;-65
2022/08/03 01:41:28;0.00;0.00;0.62;0.00;0.00;0.62;3.90;3.60;;;27.90;35.50;;;;;;2269425;61;20403;-66
2022/08/03 01:44:13;0.00;0.00;0.62;0.00;0.00;0.62;3.63;3.33;;;27.90;35.40;;;;;;2269712;61;20353;-66
2022/08/03 01:47:00;0.00;0.00;0.62;0.00;0.00;0.62;4.00;3.60;;;27.80;35.40;;;;;;2269100;61;20696;-66
2022/08/03 01:49:48;0.00;0.00;0.62;0.00;0.00;0.62;4.23;3.83;;;27.80;35.40;;;;;;2269160;61;20464;-66
2022/08/03 01:52:36;0.00;0.00;0.62;0.00;0.00;0.62;4.00;3.60;;;27.80;35.40;;;;;;2269566;61;20380;-66
2022/08/03 01:55:23;0.00;0.00;0.62;0.00;0.00;0.62;4.63;4.17;;;27.80;35.50;;;;;;2269135;61;20376;-66
2022/08/03 01:58:12;0.00;0.00;0.62;0.00;0.00;0.62;4.97;4.10;;;27.70;35.40;;;;;;2269308;61;20514;-66
2022/08/03 02:01:02;0.00;0.00;0.62;0.00;0.00;0.62;4.20;3.90;;;27.70;35.50;;;;;;2269489;61;20387;-66
2022/08/03 02:03:48;0.00;0.00;0.62;0.00;0.00;0.62;4.60;3.63;;;27.70;35.50;;;;;;2270216;61;20356;-66
2022/08/03 02:06:36;0.00;0.00;0.62;0.00;0.00;0.62;4.03;3.50;;;27.70;35.60;;;;;;2269778;61;20357;-65
2022/08/03 02:09:22;0.00;0.00;0.62;0.00;0.00;0.62;3.60;3.30;;;27.70;35.70;;;;;;2266526;61;20392;-66
2022/08/03 02:12:09;0.00;0.00;0.62;0.00;0.00;0.62;3.93;3.63;;;27.70;35.50;;;;;;2266077;61;20589;-67
2022/08/03 02:14:56;0.00;0.00;0.62;0.00;0.00;0.62;4.53;4.13;;;27.70;35.40;;;;;;2266196;61;20353;-66
2022/08/03 02:17:43;0.00;0.00;0.62;0.00;0.00;0.62;3.63;3.33;;;27.70;35.40;;;;;;2265386;61;20653;-66
2022/08/03 02:20:31;0.00;0.00;0.62;0.00;0.00;0.62;5.00;3.43;;;27.70;35.30;;;;;;2266059;61;20802;-66
2022/08/03 02:23:18;0.00;0.00;0.62;0.00;0.00;0.62;4.37;3.77;;;27.60;35.20;;;;;;2265600;61;20353;-65
2022/08/03 02:26:08;0.00;0.00;0.62;0.00;0.00;0.62;6.23;4.13;;;27.60;35.20;;;;;;2266123;61;20743;-65
2022/08/03 02:28:55;0.00;0.00;0.62;0.00;0.00;0.62;4.30;3.93;;;27.60;35.20;;;;;;2265964;61;20397;-65
2022/08/03 02:31:42;0.00;0.00;0.62;0.00;0.00;0.62;5.50;3.50;;;27.50;35.20;;;;;;2265620;61;20361;-65
2022/08/03 02:34:30;0.00;0.00;0.62;0.00;0.00;0.62;3.90;3.50;;;27.50;35.90;;;;;;2266017;61;20757;-65
2022/08/03 02:37:18;0.00;0.00;0.62;0.00;0.00;0.62;3.87;3.57;;;27.40;35.20;;;;;;2266238;61;20361;-65
2022/08/03 02:40:08;0.00;0.00;0.62;0.00;0.00;0.62;5.70;3.37;;;27.40;35.20;;;;;;2737549;45;20412;-66
2022/08/03 02:42:56;0.00;0.00;0.62;0.00;0.00;0.62;4.13;3.73;;;27.40;35.20;;;;;;2269707;61;20426;-66
2022/08/03 02:45:45;0.00;0.00;0.62;0.00;0.00;0.62;4.90;3.80;;;27.30;35.20;;;;;;2269673;61;20360;-66
2022/08/03 02:48:33;0.00;0.00;0.62;0.00;0.00;0.62;3.70;3.40;;;27.30;35.30;;;;;;2269825;61;20379;-66
2022/08/03 02:51:20;0.00;0.00;0.62;0.00;0.00;0.62;4.53;3.40;;;27.20;36.00;;;;;;2269710;61;20393;-65
2022/08/03 02:54:08;0.00;0.00;0.62;0.00;0.00;0.62;6.03;3.57;;;27.20;35.30;;;;;;2269542;61;20403;-66
2022/08/03 02:56:56;0.00;0.00;0.62;0.00;0.00;0.62;5.17;4.17;;;27.20;35.30;;;;;;2269937;61;20369;-66
2022/08/03 02:59:42;0.00;0.00;0.62;0.00;0.00;0.62;3.87;3.47;;;27.20;35.40;;;;;;2266271;61;20393;-66
2022/08/03 03:02:28;0.00;0.00;0.62;0.00;0.00;0.62;3.60;3.30;;;27.10;35.30;;;;;;2265709;61;20366;-65
2022/08/03 03:05:14;0.00;0.00;0.62;0.00;0.00;0.62;4.17;3.60;;;27.10;35.40;;;;;;2266044;61;20436;-66
2022/08/03 03:07:59;0.00;0.00;0.62;0.00;0.00;0.62;3.70;3.30;;;27.00;35.40;;;;;;2265380;61;20352;-65
2022/08/03 03:10:45;0.00;0.00;0.62;0.00;0.00;0.62;4.30;3.90;;;27.00;35.40;;;;;;2265714;61;20419;-65
2022/08/03 03:13:32;0.00;0.00;0.62;0.00;0.00;0.62;7.10;3.70;;;27.00;35.50;;;;;;2266127;61;20423;-65
2022/08/03 03:16:17;0.00;0.00;0.62;0.00;0.00;0.62;6.33;4.33;;;27.00;35.60;;;;;;2265312;61;20365;-66
2022/08/03 03:19:03;0.00;0.00;0.62;0.00;0.00;0.62;4.07;3.70;;;26.90;35.60;;;;;;2268062;61;20388;-66
2022/08/03 03:21:49;0.00;0.00;0.62;0.00;0.00;0.62;3.37;2.80;;;26.90;35.60;;;;;;2270274;61;20726;-66
2022/08/03 03:24:35;0.00;0.00;0.62;0.00;0.00;0.62;4.20;3.60;;;26.90;35.70;;;;;;2269503;61;20683;-66
2022/08/03 03:27:20;0.00;0.00;0.62;0.00;0.00;0.62;4.27;3.70;;;26.80;35.60;;;;;;2270142;61;20357;-66
2022/08/03 03:30:08;0.00;0.00;0.62;0.00;0.00;0.62;4.53;4.10;;;26.80;35.80;;;;;;2726744;45;20407;-65
2022/08/03 03:32:55;0.00;0.00;0.62;0.00;0.00;0.62;5.20;4.47;;;26.80;35.80;;;;;;2269781;61;20392;-66
2022/08/03 03:35:44;0.00;0.00;0.62;0.00;0.00;0.62;3.87;3.50;;;26.70;35.80;;;;;;2270135;61;20398;-65
2022/08/03 03:38:29;0.00;0.00;0.62;0.00;0.00;0.62;7.20;4.13;;;26.70;35.80;;;;;;2267422;61;20441;-65
2022/08/03 03:41:14;0.00;0.00;0.62;0.00;0.00;0.62;4.57;3.77;;;26.70;35.80;;;;;;2621712;45;20350;-65
2022/08/03 03:43:59;0.00;0.00;0.62;0.00;0.00;0.62;3.93;3.53;;;26.70;35.90;;;;;;2264403;61;20478;-65
2022/08/03 03:46:45;0.00;0.00;0.62;0.00;0.00;0.62;4.03;3.37;;;26.70;35.90;;;;;;2261330;61;20405;-66
2022/08/03 03:49:31;0.00;0.00;0.62;0.00;0.00;0.62;4.53;4.13;;;26.60;35.80;;;;;;2264968;61;20397;-66
2022/08/03 03:52:15;0.00;0.00;0.62;0.00;0.00;0.62;4.83;4.20;;;26.60;35.80;;;;;;2265186;61;20746;-66
2022/08/03 03:55:00;0.00;0.00;0.62;0.00;0.00;0.62;5.70;4.03;;;26.60;35.90;;;;;;2265847;61;20584;-66
2022/08/03 03:57:45;0.00;0.00;0.62;0.00;0.00;0.62;3.97;3.57;;;26.50;35.80;;;;;;2266114;61;20360;-66
2022/08/03 04:00:30;0.00;0.00;0.62;0.00;0.00;0.62;7.57;3.50;;;26.50;35.90;;;;;;2269186;61;20372;-66
2022/08/03 04:03:16;0.00;0.00;0.62;0.00;0.00;0.62;4.40;4.00;;;26.50;35.90;;;;;;2269771;61;20587;-66
2022/08/03 04:12:11;0.00;0.00;0.62;0.00;0.00;0.62;3.10;2.90;;;26.40;35.90;;;;;;2265992;61;20372;-66
2022/08/03 04:14:58;0.00;0.00;0.62;0.00;0.00;0.62;3.47;3.17;;;26.40;35.90;;;;;;2265219;61;20437;-66
2022/08/03 04:17:44;0.00;0.00;0.62;0.00;0.00;0.62;3.80;3.40;;;26.40;36.00;;;;;;2265531;61;20356;-66
2022/08/03 04:20:33;0.00;0.00;0.62;0.00;0.00;0.62;4.03;3.73;;;26.40;35.90;;;;;;2265731;61;20384;-66
2022/08/03 04:23:23;0.00;0.00;0.62;0.00;0.00;0.62;3.93;3.53;;;26.40;35.90;;;;;;2265290;61;20689;-66
2022/08/03 04:26:12;0.00;0.00;0.62;0.00;0.00;0.62;4.13;3.73;;;26.40;36.00;;;;;;2265318;61;20435;-66
2022/08/03 04:28:58;0.00;0.00;0.62;0.00;0.00;0.62;6.40;3.70;;;26.40;36.00;;;;;;2265042;61;20477;-66
2022/08/03 04:31:45;0.00;0.00;0.62;0.00;0.00;0.62;4.27;3.90;;;26.30;36.00;;;;;;2265559;61;20404;-66
2022/08/03 04:34:31;0.00;0.00;0.62;0.00;0.00;0.62;3.30;3.10;;;26.30;36.00;;;;;;2265731;61;20384;-66
2022/08/03 04:37:29;0.00;0.00;0.62;0.00;0.00;0.62;5.70;3.30;;;26.30;36.00;;;;;;2265163;61;20364;-66
2022/08/03 04:40:20;0.00;0.00;0.62;0.00;0.00;0.62;3.57;3.00;;;26.30;36.00;;;;;;2502139;53;20373;-65
2022/08/03 04:43:06;0.00;0.00;0.62;0.00;0.00;0.62;4.33;3.60;;;26.30;36.00;;;;;;2265781;61;20744;-67
2022/08/03 04:45:53;0.00;0.00;0.62;0.00;0.00;0.62;3.77;3.37;;;26.30;36.60;;;;;;2265252;61;20345;-66
2022/08/03 04:48:38;0.00;0.00;0.62;0.00;0.00;0.62;5.00;3.60;;;26.30;35.90;;;;;;2265869;61;20388;-66
2022/08/03 04:51:24;0.00;0.00;0.62;0.00;0.00;0.62;4.07;3.77;;;26.30;36.00;;;;;;2265094;61;20353;-66
2022/08/03 04:54:13;0.00;0.00;0.62;0.00;0.00;0.62;4.30;3.53;;;26.40;36.10;;;;;;2265576;61;20384;-66
2022/08/03 04:56:58;0.00;0.00;0.62;0.00;0.00;0.62;5.37;3.70;;;26.30;36.00;;;;;;2265751;61;20431;-66
2022/08/03 04:59:42;0.00;0.00;0.62;0.00;0.00;0.62;3.90;3.50;;;26.30;36.00;;;;;;2264755;61;20521;-65
2022/08/03 05:02:27;0.00;0.00;0.62;0.00;0.00;0.62;4.10;3.60;;;26.30;36.00;;;;;;2265612;61;20574;-66
2022/08/03 05:05:12;0.00;0.00;0.62;0.00;0.00;0.62;3.90;3.50;;;26.30;36.10;;;;;;2265712;61;20403;-65
2022/08/03 05:07:57;0.00;0.00;0.62;0.00;0.00;0.62;4.00;3.60;;;26.30;36.20;;;;;;2264814;61;20420;-66
2022/08/03 05:10:43;0.00;0.00;0.62;0.00;0.00;0.62;4.23;3.33;;;26.30;36.20;;;;;;2265672;61;20373;-66
2022/08/03 05:13:28;0.00;0.00;0.62;0.00;0.00;0.62;3.47;3.17;;;26.30;36.20;;;;;;2265120;61;20595;-66
2022/08/03 05:16:13;0.00;0.00;0.62;0.00;0.00;0.62;4.77;4.20;;;26.30;36.20;;;;;;2265630;61;20708;-65
2022/08/03 05:18:58;0.00;0.00;0.62;0.00;0.00;0.62;4.50;3.47;;;26.30;36.20;;;;;;2267852;61;20429;-65
2022/08/03 05:21:43;0.00;0.00;0.62;0.00;0.00;0.62;3.70;3.40;;;26.30;36.30;;;;;;2268974;61;20355;-65
2022/08/03 05:24:28;0.00;0.00;0.62;0.00;0.00;0.62;4.13;3.73;;;26.30;36.20;;;;;;2269681;61;20352;-66
2022/08/03 05:27:20;0.00;0.00;0.62;0.00;0.00;0.62;4.20;3.80;;;26.30;36.30;;;;;;2269611;61;20364;-66
2022/08/03 05:30:07;0.00;0.00;0.62;0.00;0.00;0.62;3.67;3.27;;;26.40;36.30;;;;;;2268814;61;20450;-66
2022/08/03 05:32:52;0.00;0.00;0.62;0.00;0.00;0.62;4.03;3.63;;;26.40;36.40;;;;;;2269760;61;20581;-65
2022/08/03 05:35:38;0.00;0.00;0.62;0.00;0.00;0.62;4.43;3.60;;;26.40;36.30;;;;;;2269326;61;20406;-69
2022/08/03 05:38:23;0.00;0.00;0.62;0.00;0.00;0.62;4.20;3.80;;;26.40;36.30;;;;;;2268555;61;20588;-66
2022/08/03 05:41:08;0.00;0.00;0.62;0.00;0.00;0.62;5.10;3.30;;;26.40;36.30;;;;;;2266152;61;20709;-63
2022/08/03 05:43:54;0.00;0.00;0.62;0.00;0.00;0.62;3.83;3.43;;;26.50;36.40;;;;;;2265570;61;20487;-63
2022/08/03 05:46:39;0.00;0.00;0.62;0.00;0.00;0.62;3.87;3.20;;;26.50;36.40;;;;;;2266396;61;20484;-63
2022/08/03 05:49:24;0.00;0.00;0.62;0.00;0.00;0.62;4.53;3.60;;;26.50;36.30;;;;;;2269098;61;21050;-64
2022/08/03 05:52:09;0.00;0.00;0.62;0.00;0.00;0.62;4.37;3.97;;;26.50;36.40;;;;;;2269752;61;20395;-67
2022/08/03 05:54:54;0.00;0.00;0.62;0.00;0.00;0.62;3.87;3.57;;;26.60;36.40;;;;;;2270385;61;20388;-62
2022/08/03 05:57:39;0.00;0.00;0.62;0.00;0.00;0.62;11.97;3.33;;;26.60;36.50;;;;;;2269587;61;20355;-64
2022/08/03 06:00:25;0.00;0.00;0.62;0.00;0.00;0.62;4.30;3.37;;;26.60;36.60;;;;;;2270113;61;20379;-67
2022/08/03 06:03:11;0.00;0.00;0.62;0.00;0.00;0.62;3.50;3.20;;;26.60;36.50;;;;;;2270261;61;20437;-65
2022/08/03 06:05:55;0.00;0.00;0.62;0.00;0.00;0.62;7.10;3.37;;;26.70;36.50;;;;;;2269411;61;20357;-65
2022/08/03 06:08:42;0.00;0.00;0.62;0.00;0.00;0.62;4.50;3.50;;;26.70;36.50;;;;;;2269897;61;20399;-64
2022/08/03 06:11:27;0.00;0.00;0.62;0.00;0.00;0.62;4.93;3.20;;;26.80;36.50;;;;;;2270159;61;20363;-64
2022/08/03 06:14:12;0.00;0.00;0.62;0.00;0.00;0.62;3.97;3.40;;;26.80;36.50;;;;;;2269529;61;20431;-64
2022/08/03 06:16:58;0.00;0.00;0.62;0.00;0.00;0.62;4.17;3.50;;;26.80;36.50;;;;;;2270268;61;20363;-67
2022/08/03 06:19:43;0.00;0.00;0.62;0.00;0.00;0.62;4.20;3.80;;;26.90;36.50;;;;;;2269596;61;20728;-65
2022/08/03 06:22:27;0.00;0.00;0.62;0.00;0.00;0.62;10.87;4.27;;;26.90;36.40;;;;;;2270344;61;20372;-64
2022/08/03 06:25:12;0.00;0.00;0.62;0.00;0.00;0.62;4.80;3.70;;;27.00;36.40;;;;;;2270202;61;20383;-65
2022/08/03 06:27:58;0.00;0.00;0.62;0.00;0.00;0.62;7.40;3.57;;;27.00;36.30;;;;;;2269334;61;20368;-64
2022/08/03 06:30:43;0.00;0.00;0.62;0.00;0.00;0.62;3.53;3.20;;;27.00;36.30;;;;;;2270062;61;20383;-64
2022/08/03 06:33:30;0.00;0.00;0.62;0.00;0.00;0.62;3.80;3.27;;;27.10;36.40;;;;;;2270157;61;20392;-64
2022/08/03 06:36:14;0.00;0.00;0.62;0.00;0.00;0.62;3.43;3.10;;;27.10;36.40;;;;;;2269586;61;20583;-65
2022/08/03 06:39:00;0.00;0.00;0.62;0.00;0.00;0.62;5.37;3.73;;;27.20;36.40;;;;;;2267258;61;20392;-65
2022/08/03 06:41:45;0.00;0.00;0.62;0.00;0.00;0.62;4.70;3.97;;;27.20;36.50;;;;;;2266091;61;20365;-64
2022/08/03 06:44:31;0.00;0.00;0.62;0.00;0.00;0.62;7.70;3.60;;;27.20;36.40;;;;;;2265527;61;20429;-63
2022/08/03 06:47:16;0.00;0.00;0.62;0.00;0.00;0.62;4.90;3.87;;;27.30;36.50;;;;;;2266187;61;20704;-66
2022/08/03 06:50:02;0.00;0.00;0.62;0.00;0.00;0.62;5.47;3.90;;;27.30;36.40;;;;;;2265375;61;20431;-63
2022/08/03 06:52:47;0.00;0.00;0.62;0.00;0.00;0.62;3.67;3.30;;;27.40;36.50;;;;;;2265748;61;20384;-68
2022/08/03 06:55:32;0.00;0.00;0.62;0.00;0.00;0.62;3.60;3.30;;;27.40;36.40;;;;;;2266078;61;20583;-66
2022/08/03 06:58:16;0.00;0.00;0.62;0.00;0.00;0.62;5.73;2.90;;;27.40;36.30;;;;;;2265055;61;20372;-63
2022/08/03 07:01:01;0.00;0.00;0.62;0.00;0.00;0.62;4.83;3.10;;;27.50;36.30;;;;;;2265884;61;20361;-69
2022/08/03 07:03:46;0.00;0.00;0.62;0.00;0.00;0.62;3.33;3.03;;;27.50;36.30;;;;;;2266189;61;20357;-63
2022/08/03 07:06:33;0.00;0.00;0.62;0.00;0.00;0.62;4.40;3.40;;;27.60;36.40;;;;;;2265280;61;20484;-65
2022/08/03 07:09:18;0.00;0.00;0.62;0.00;0.00;0.62;3.60;2.80;;;27.60;36.30;;;;;;2265733;61;20465;-65
2022/08/03 07:12:05;0.00;0.00;0.62;0.00;0.00;0.62;4.53;3.00;;;27.70;36.30;;;;;;2265307;61;20383;-66
2022/08/03 07:14:50;0.00;0.00;0.62;0.00;0.00;0.62;3.87;2.90;;;27.70;36.20;;;;;;2265716;61;20413;-66
2022/08/03 07:17:35;0.00;0.00;0.62;0.00;0.00;0.62;2.97;2.63;;;27.80;36.10;;;;;;2266035;61;20411;-66
2022/08/03 07:20:20;0.00;0.00;0.62;0.00;0.00;0.62;3.43;3.13;;;27.80;36.10;;;;;;2261256;61;20382;-67
2022/08/03 07:23:07;0.00;0.00;0.62;0.00;0.00;0.62;4.23;3.27;;;27.90;36.10;;;;;;2261714;61;20405;-70
2022/08/03 07:25:52;0.00;0.00;0.62;0.00;0.00;0.62;4.27;2.87;;;27.90;36.00;;;;;;2262162;61;20833;-67
2022/08/03 07:28:36;0.00;0.00;0.62;0.00;0.00;0.62;4.13;3.13;;;28.00;36.00;;;;;;2262578;61;20392;-64
2022/08/03 07:31:21;0.00;0.00;0.62;0.00;0.00;0.62;3.63;2.70;;;28.00;35.90;;;;;;2265940;61;20384;-65
2022/08/03 07:34:06;0.00;0.00;0.62;0.00;0.00;0.62;3.67;3.03;;;28.00;35.90;;;;;;2265179;61;20389;-64
2022/08/03 07:36:50;0.00;0.00;0.62;0.00;0.00;0.62;3.30;3.00;;;28.10;36.00;;;;;;2265442;61;20701;-67
2022/08/03 07:39:36;0.00;0.00;0.62;0.00;0.00;0.62;3.90;3.20;;;28.10;35.90;;;;;;2265898;61;20457;-64
2022/08/03 07:42:22;0.00;0.00;0.62;0.00;0.00;0.62;3.63;2.93;;;28.10;35.80;;;;;;2265171;61;20387;-64
2022/08/03 07:45:09;0.00;0.00;0.62;0.00;0.00;0.62;3.90;3.30;;;28.20;35.90;;;;;;2265762;61;20745;-62
2022/08/03 07:47:53;0.00;0.00;0.62;0.00;0.00;0.62;3.00;2.70;;;28.20;35.80;;;;;;2265700;61;20399;-65
2022/08/03 07:50:39;0.00;0.00;0.62;0.00;0.00;0.62;3.53;3.23;;;28.20;35.80;;;;;;2265139;61;20451;-63
2022/08/03 07:53:23;0.00;0.00;0.62;0.00;0.00;0.62;4.00;2.50;;;28.30;35.80;;;;;;2266043;61;20376;-68
2022/08/03 07:56:09;0.00;0.00;0.62;0.00;0.00;0.62;3.57;3.17;;;28.40;35.70;;;;;;2265225;61;20419;-67
2022/08/03 07:58:55;0.00;0.00;0.62;0.00;0.00;0.62;3.30;3.00;;;28.40;35.70;;;;;;2267723;61;20388;-68
2022/08/03 08:01:40;0.00;0.00;0.62;0.00;0.00;0.62;3.47;2.87;;;28.40;35.60;;;;;;2270001;61;20365;-66
2022/08/03 08:04:24;0.00;0.00;0.62;0.00;0.00;0.62;4.10;2.93;;;28.50;35.60;;;;;;2269208;61;20345;-65
2022/08/03 08:07:10;0.00;0.00;0.62;0.00;0.00;0.62;4.10;2.90;;;28.50;35.60;;;;;;2269807;61;20562;-69
2022/08/03 08:09:54;0.00;0.00;0.62;0.00;0.00;0.62;3.13;2.83;;;28.50;35.60;;;;;;2265820;61;20387;-66
2022/08/03 08:12:41;0.00;0.00;0.62;0.00;0.00;0.62;2.80;2.40;;;28.60;35.50;;;;;;2265130;61;20361;-67
2022/08/03 08:15:26;0.00;0.00;0.62;0.00;0.00;0.62;3.33;3.00;;;28.60;35.40;;;;;;2265921;61;20357;-67
2022/08/03 08:18:11;0.00;0.00;0.62;0.00;0.00;0.62;2.63;2.43;;;28.60;35.30;;;;;;2265250;61;20369;-65
2022/08/03 08:20:57;0.00;0.00;0.62;0.00;0.00;0.62;4.80;2.63;;;28.70;35.40;;;;;;2265791;61;20633;-63
2022/08/03 08:23:42;0.00;0.00;0.62;0.00;0.00;0.62;3.17;2.63;;;28.70;35.20;;;;;;2265773;61;20360;-66
2022/08/03 08:26:27;0.00;0.00;0.62;0.00;0.00;0.62;4.20;2.90;;;28.80;35.20;;;;;;2265179;61;20360;-61
2022/08/03 08:29:13;0.00;0.00;0.62;0.00;0.00;0.62;2.90;2.23;;;28.80;35.10;;;;;;2265443;61;20435;-65
2022/08/03 08:31:57;0.00;0.00;0.62;0.00;0.00;0.62;2.27;1.80;;;28.80;35.10;;;;;;2265886;61;20373;-60
2022/08/03 08:34:42;0.00;0.00;0.62;0.00;0.00;0.62;2.70;2.00;;;28.90;35.20;;;;;;2265020;61;20389;-65
2022/08/03 08:37:27;0.00;0.00;0.62;0.00;0.00;0.62;3.10;2.33;;;28.90;35.10;;;;;;2265451;61;20434;-65
2022/08/03 08:40:12;0.00;0.00;0.62;0.00;0.00;0.62;3.13;2.10;;;29.00;35.10;;;;;;2515182;53;20782;-64
2022/08/03 08:42:57;0.00;0.00;0.62;0.00;0.00;0.62;2.67;2.00;;;29.00;35.00;;;;;;2261465;61;20404;-65
2022/08/03 08:45:44;0.00;0.00;0.62;0.00;0.00;0.62;3.27;2.40;;;29.00;34.90;;;;;;2261760;61;20576;-64
2022/08/03 08:48:31;0.00;0.00;0.62;0.00;0.00;0.62;5.20;2.00;;;29.10;34.80;;;;;;2262121;61;20404;-63
2022/08/03 08:51:12;0.00;0.00;0.62;0.00;0.00;0.62;2.53;2.20;;;29.10;34.80;;;;;;2258836;61;20438;-63
2022/08/03 08:54:01;0.00;0.00;0.62;0.00;0.00;0.62;4.23;2.20;;;29.10;34.80;;;;;;2253667;61;20387;-66
2022/08/03 08:56:48;0.00;0.00;0.62;0.00;0.00;0.62;2.70;2.20;;;29.20;34.90;;;;;;2252841;61;20758;-65
2022/08/03 08:59:34;0.00;0.00;0.62;0.00;0.00;0.62;2.30;2.07;;;29.20;34.70;;;;;;2253325;61;20383;-61
2022/08/03 09:02:21;0.00;0.00;0.62;0.00;0.00;0.62;3.13;2.10;;;29.20;34.70;;;;;;2253754;61;20411;-65
2022/08/03 09:05:08;0.00;0.00;0.62;0.00;0.00;0.62;3.10;2.17;;;29.30;34.70;;;;;;2252967;61;20359;-64
2022/08/03 09:07:53;0.00;0.00;0.62;0.00;0.00;0.62;3.53;2.63;;;29.30;34.60;;;;;;2253498;61;20368;-65
2022/08/03 09:10:37;0.00;0.00;0.62;0.00;0.00;0.62;6.83;2.67;;;29.40;34.50;;;;;;2254036;61;20383;-67
2022/08/03 09:13:22;0.00;0.00;0.62;0.00;0.00;0.62;4.77;1.90;;;29.40;34.40;;;;;;2253758;61;20707;-63
2022/08/03 09:16:15;0.00;0.00;0.62;0.00;0.00;0.62;3.07;2.20;;;29.40;34.30;;;;;;2254164;61;20511;-65
2022/08/03 09:19:12;0.00;0.00;0.62;0.00;0.00;0.62;3.23;2.20;;;29.50;34.40;;;;;;2253446;61;20798;-65
2022/08/03 09:22:14;0.00;0.00;0.62;0.00;0.00;0.62;4.30;2.43;;;29.50;34.40;;;;;;2253714;61;20707;-65
2022/08/03 09:25:10;0.00;0.00;0.62;0.00;0.00;0.62;2.53;1.70;;;29.60;34.30;;;;;;2254061;61;20579;-66
2022/08/03 09:28:04;0.00;0.00;0.62;0.00;0.00;0.62;4.20;2.20;;;29.60;34.30;;;;;;2253572;61;20364;-65
2022/08/03 09:30:58;0.00;0.00;0.62;0.00;0.00;0.62;2.10;1.83;;;29.60;34.10;;;;;;2254453;61;20636;-64
2022/08/03 09:33:47;0.00;0.00;0.62;0.00;0.00;0.62;4.40;2.23;;;29.70;34.20;;;;;;2253499;61;20391;-67
2022/08/03 09:36:42;0.00;0.00;0.62;0.00;0.00;0.62;3.30;2.03;;;29.70;34.10;;;;;;2253939;61;20582;-67
2022/08/03 09:39:30;0.00;0.00;0.62;0.00;0.00;0.62;2.40;2.10;;;29.80;33.90;;;;;;2253094;61;20762;-65
2022/08/03 09:42:17;0.00;0.00;0.62;0.00;0.00;0.62;2.83;2.00;;;29.80;33.80;;;;;;2253220;61;20423;-64
2022/08/03 09:45:03;0.00;0.00;0.62;0.00;0.00;0.62;3.30;1.83;;;29.80;33.40;;;;;;2253630;61;20390;-65
2022/08/03 09:47:48;0.00;0.00;0.62;0.00;0.00;0.62;3.17;2.20;;;29.90;33.40;;;;;;2253326;61;20444;-66
2022/08/03 09:50:47;0.00;0.00;0.62;0.00;0.00;0.62;3.20;1.77;;;29.90;33.40;;;;;;2253575;61;20596;-66
2022/08/03 09:53:43;0.00;0.00;0.62;0.00;0.00;0.62;1.93;1.57;;;29.90;33.40;;;;;;2253672;61;20407;-66
2022/08/03 09:56:42;0.00;0.00;0.62;0.00;0.00;0.62;2.40;1.90;;;30.00;33.40;;;;;;2249090;61;20380;-62
2022/08/03 09:59:29;0.00;0.00;0.62;0.00;0.00;0.62;4.80;1.90;;;30.00;33.40;;;;;;2249679;61;20755;-63
2022/08/03 10:02:22;0.00;0.00;0.62;0.00;0.00;0.62;4.00;2.10;;;30.10;33.50;;;;;;2249485;61;20441;-66
2022/08/03 10:05:09;0.00;0.00;0.62;0.00;0.00;0.62;2.77;2.20;;;30.10;32.90;;;;;;2249396;61;20365;-64
2022/08/03 10:07:54;0.00;0.00;0.62;0.00;0.00;0.62;5.53;2.07;;;30.10;32.90;;;;;;2249671;61;20376;-64
2022/08/03 10:10:44;0.00;0.00;0.62;0.00;0.00;0.62;4.20;2.57;;;30.10;32.80;;;;;;2248613;61;20488;-64
2022/08/03 10:13:29;0.00;0.00;0.62;0.00;0.00;0.62;4.30;1.87;;;30.20;32.80;;;;;;2249888;61;20714;-62
2022/08/03 10:16:14;0.00;0.00;0.62;0.00;0.00;0.62;3.20;2.13;;;30.20;32.50;;;;;;2249783;61;20357;-64
2022/08/03 10:18:59;0.00;0.00;0.62;0.00;0.00;0.62;4.13;2.90;;;30.20;32.70;;;;;;2249007;61;20383;-61
2022/08/03 10:21:50;0.00;0.00;0.62;0.00;0.00;0.62;4.57;2.37;;;30.20;32.80;;;;;;2249713;61;20356;-61
2022/08/03 10:24:38;0.00;0.00;0.62;0.00;0.00;0.62;3.27;2.43;;;30.30;33.60;;;;;;2249006;61;20360;-62
2022/08/03 10:27:26;0.00;0.00;0.62;0.00;0.00;0.62;2.03;1.77;;;30.30;33.10;;;;;;2249487;61;20361;-62
2022/08/03 10:30:12;0.00;0.00;0.62;0.00;0.00;0.62;3.90;1.93;;;30.40;33.20;;;;;;2249799;61;20389;-61
2022/08/03 10:33:08;0.00;0.00;0.62;0.00;0.00;0.62;2.90;2.27;;;30.40;33.10;;;;;;2248939;61;20360;-62
2022/08/03 10:35:56;0.00;0.00;0.62;0.00;0.00;0.62;3.93;2.60;;;30.40;32.90;;;;;;2249862;61;20611;-62
2022/08/03 10:38:46;0.00;0.00;0.62;0.00;0.00;0.62;4.20;2.07;;;30.50;32.80;;;;;;2249252;61;20404;-61
2022/08/03 10:41:38;0.00;0.00;0.62;0.00;0.00;0.62;4.07;2.50;;;30.50;32.70;;;;;;2249197;61;20361;-62
2022/08/03 10:44:30;0.00;0.00;0.62;0.00;0.00;0.62;2.90;2.27;;;30.50;32.60;;;;;;2249796;61;20651;-61
2022/08/03 10:47:15;0.00;0.00;0.62;0.00;0.00;0.62;5.80;2.27;;;30.50;32.40;;;;;;2249641;61;20369;-61
2022/08/03 10:50:01;0.00;0.00;0.62;0.00;0.00;0.62;2.80;2.10;;;30.60;32.60;;;;;;2249683;61;20392;-61
2022/08/03 10:52:57;0.00;0.00;0.62;0.00;0.00;0.62;2.50;2.13;;;30.60;32.50;;;;;;2249682;61;20416;-61
2022/08/03 10:58:52;0.00;0.00;0.62;0.00;0.00;0.62;4.33;2.40;;;30.70;32.70;;;;;;2249520;61;20836;-62
2022/08/03 11:01:55;0.00;0.00;0.62;0.00;0.00;0.62;2.97;2.23;;;30.70;32.50;;;;;;2249385;61;20783;-61
2022/08/03 11:04:40;0.00;0.00;0.62;0.00;0.00;0.62;3.60;2.43;;;30.70;32.50;;;;;;2249814;61;20496;-61
2022/08/03 11:07:25;0.00;0.00;0.62;0.00;0.00;0.62;4.00;2.40;;;30.80;32.40;;;;;;2249702;61;20357;-62
2022/08/03 11:10:29;0.00;0.00;0.62;0.00;0.00;0.62;3.40;2.30;;;30.80;32.30;;;;;;2248892;61;20432;-62